sensor_id;sensor_type;location;lat;lon;timestamp;pressure;altitude;pressure_sealevel;temperature
60003;BMP280;46322;52.018;8.702;2023-03-01T00:02:22;101711.84;;;7.35
60003;BMP280;46322;52.018;8.702;2023-03-01T00:07:22;101711.56;;;7.78
60003;BMP280;46322;52.018;8.702;2023-03-01T00:12:22;101709.84;;;9.42
60003;BMP280;46322;52.018;8.702;2023-03-01T00:17:22;101711.88;;;7.87
60003;BMP280;46322;52.018;8.702;2023-03-01T00:22:22;101713.31;;;9.96
60003;BMP280;46322;52.018;8.702;2023-03-01T00:27:24;101712.31;;;9.82
60003;BMP280;46322;52.018;8.702;2023-03-01T00:32:24;101714.53;;;10.19
60003;BMP280;46322;52.018;8.702;2023-03-01T00:37:24;101716.94;;;10.06
60003;BMP280;46322;52.018;8.702;2023-03-01T00:42:25;101711.75;;;9.90
60003;BMP280;46322;52.018;8.702;2023-03-01T00:47:25;101711.44;;;9.97
60003;BMP280;46322;52.018;8.702;2023-03-01T00:52:25;101696.06;;;9.34
60003;BMP280;46322;52.018;8.702;2023-03-01T00:57:26;101704.28;;;9.38
60003;BMP280;46322;52.018;8.702;2023-03-01T01:02:26;101707.25;;;8.96
60003;BMP280;46322;52.018;8.702;2023-03-01T01:07:27;101709.19;;;9.70
60003;BMP280;46322;52.018;8.702;2023-03-01T01:12:27;101702.28;;;8.74
60003;BMP280;46322;52.018;8.702;2023-03-01T01:17:27;101699.03;;;9.28
60003;BMP280;46322;52.018;8.702;2023-03-01T01:22:27;101695.66;;;9.02
60003;BMP280;46322;52.018;8.702;2023-03-01T01:27:29;101680.22;;;9.24
60003;BMP280;46322;52.018;8.702;2023-03-01T01:32:30;101677.84;;;8.06
60003;BMP280;46322;52.018;8.702;2023-03-01T01:37:30;101675.97;;;9.33
60003;BMP280;46322;52.018;8.702;2023-03-01T01:42:30;101670.28;;;8.81
60003;BMP280;46322;52.018;8.702;2023-03-01T01:47:31;101663.66;;;6.70
60003;BMP280;46322;52.018;8.702;2023-03-01T01:52:35;101658.56;;;9.17
60003;BMP280;46322;52.018;8.702;2023-03-01T01:57:41;101661.78;;;8.94
60003;BMP280;46322;52.018;8.702;2023-03-01T02:02:44;101662.84;;;9.03
60003;BMP280;46322;52.018;8.702;2023-03-01T02:07:47;101659.94;;;9.04
60003;BMP280;46322;52.018;8.702;2023-03-01T02:12:49;101658.34;;;8.83
60003;BMP280;46322;52.018;8.702;2023-03-01T02:17:49;101659.94;;;9.04
60003;BMP280;46322;52.018;8.702;2023-03-01T02:22:50;101662.00;;;9.13
60003;BMP280;46322;52.018;8.702;2023-03-01T02:32:57;101653.59;;;8.60
60003;BMP280;46322;52.018;8.702;2023-03-01T02:37:59;101658.91;;;8.80
60003;BMP280;46322;52.018;8.702;2023-03-01T02:43:00;101648.63;;;7.45
60003;BMP280;46322;52.018;8.702;2023-03-01T02:48:01;101653.34;;;8.46
60003;BMP280;46322;52.018;8.702;2023-03-01T02:53:09;101642.72;;;8.00
60003;BMP280;46322;52.018;8.702;2023-03-01T02:58:12;101636.66;;;8.25
60003;BMP280;46322;52.018;8.702;2023-03-01T03:03:15;101630.91;;;8.33
60003;BMP280;46322;52.018;8.702;2023-03-01T03:08:23;101625.06;;;8.11
60003;BMP280;46322;52.018;8.702;2023-03-01T03:13:24;101624.00;;;8.48
60003;BMP280;46322;52.018;8.702;2023-03-01T03:18:24;101622.69;;;8.30
60003;BMP280;46322;52.018;8.702;2023-03-01T03:23:25;101621.34;;;8.17
60003;BMP280;46322;52.018;8.702;2023-03-01T03:28:25;101604.44;;;8.18
60003;BMP280;46322;52.018;8.702;2023-03-01T03:33:25;101612.91;;;8.10
60003;BMP280;46322;52.018;8.702;2023-03-01T03:38:25;101602.88;;;8.17
60003;BMP280;46322;52.018;8.702;2023-03-01T03:43:27;101607.53;;;7.84
60003;BMP280;46322;52.018;8.702;2023-03-01T03:48:27;101591.72;;;7.90
60003;BMP280;46322;52.018;8.702;2023-03-01T03:53:28;101590.91;;;7.74
60003;BMP280;46322;52.018;8.702;2023-03-01T03:58:29;101586.22;;;7.91
60003;BMP280;46322;52.018;8.702;2023-03-01T04:03:30;101579.31;;;7.95
60003;BMP280;46322;52.018;8.702;2023-03-01T04:08:30;101590.38;;;7.77
60003;BMP280;46322;52.018;8.702;2023-03-01T04:13:31;101593.38;;;5.29
60003;BMP280;46322;52.018;8.702;2023-03-01T04:18:31;101597.34;;;5.70
60003;BMP280;46322;52.018;8.702;2023-03-01T04:23:32;101587.78;;;5.64
60003;BMP280;46322;52.018;8.702;2023-03-01T04:28:38;101598.59;;;7.18
60003;BMP280;46322;52.018;8.702;2023-03-01T04:33:48;101584.22;;;4.76
60003;BMP280;46322;52.018;8.702;2023-03-01T04:38:50;101589.41;;;4.71
60003;BMP280;46322;52.018;8.702;2023-03-01T04:43:50;101594.47;;;4.61
60003;BMP280;46322;52.018;8.702;2023-03-01T04:48:50;101595.09;;;6.33
60003;BMP280;46322;52.018;8.702;2023-03-01T04:53:50;101573.78;;;7.86
60003;BMP280;46322;52.018;8.702;2023-03-01T04:58:53;101584.81;;;7.63
60003;BMP280;46322;52.018;8.702;2023-03-01T05:03:53;101593.91;;;8.23
60003;BMP280;46322;52.018;8.702;2023-03-01T05:08:53;101586.88;;;6.61
60003;BMP280;46322;52.018;8.702;2023-03-01T05:13:53;101581.19;;;7.79
60003;BMP280;46322;52.018;8.702;2023-03-01T05:18:54;101586.47;;;8.00
60003;BMP280;46322;52.018;8.702;2023-03-01T05:23:54;101581.66;;;7.76
60003;BMP280;46322;52.018;8.702;2023-03-01T05:28:56;101581.19;;;7.79
60003;BMP280;46322;52.018;8.702;2023-03-01T05:33:56;101583.34;;;7.30
60003;BMP280;46322;52.018;8.702;2023-03-01T05:38:57;101571.38;;;6.65
60003;BMP280;46322;52.018;8.702;2023-03-01T05:43:57;101571.03;;;7.46
60003;BMP280;46322;52.018;8.702;2023-03-01T05:48:57;101568.91;;;7.43
60003;BMP280;46322;52.018;8.702;2023-03-01T05:53:57;101578.19;;;7.50
60003;BMP280;46322;52.018;8.702;2023-03-01T05:58:58;101585.03;;;6.62
60003;BMP280;46322;52.018;8.702;2023-03-01T06:03:58;101588.84;;;5.41
60003;BMP280;46322;52.018;8.702;2023-03-01T06:08:58;101583.34;;;5.04
60003;BMP280;46322;52.018;8.702;2023-03-01T06:13:59;101582.22;;;6.04
60003;BMP280;46322;52.018;8.702;2023-03-01T06:18:59;101592.03;;;7.25
60003;BMP280;46322;52.018;8.702;2023-03-01T06:23:59;101599.41;;;7.23
60003;BMP280;46322;52.018;8.702;2023-03-01T06:28:59;101602.34;;;6.85
60003;BMP280;46322;52.018;8.702;2023-03-01T06:34:00;101609.88;;;5.41
60003;BMP280;46322;52.018;8.702;2023-03-01T06:39:00;101601.38;;;7.01
60003;BMP280;46322;52.018;8.702;2023-03-01T06:44:00;101583.78;;;7.69
60003;BMP280;46322;52.018;8.702;2023-03-01T06:49:00;101591.41;;;6.34
60003;BMP280;46322;52.018;8.702;2023-03-01T06:54:01;101580.81;;;7.55
60003;BMP280;46322;52.018;8.702;2023-03-01T06:59:01;101575.91;;;8.30
60003;BMP280;46322;52.018;8.702;2023-03-01T07:04:02;101570.81;;;7.57
60003;BMP280;46322;52.018;8.702;2023-03-01T07:09:02;101583.81;;;7.79
60003;BMP280;46322;52.018;8.702;2023-03-01T07:14:02;101576.97;;;8.65
60003;BMP280;46322;52.018;8.702;2023-03-01T07:19:03;101573.72;;;8.88
60003;BMP280;46322;52.018;8.702;2023-03-01T07:24:03;101571.41;;;8.36
60003;BMP280;46322;52.018;8.702;2023-03-01T07:29:06;101556.78;;;9.04
60003;BMP280;46322;52.018;8.702;2023-03-01T07:34:06;101562.44;;;8.62
60003;BMP280;46322;52.018;8.702;2023-03-01T07:39:07;101558.50;;;9.74
60003;BMP280;46322;52.018;8.702;2023-03-01T07:44:07;101557.81;;;9.97
60003;BMP280;46322;52.018;8.702;2023-03-01T07:49:07;101544.44;;;10.12
60003;BMP280;46322;52.018;8.702;2023-03-01T07:54:07;101551.88;;;10.10
60003;BMP280;46322;52.018;8.702;2023-03-01T07:59:08;101551.09;;;9.31
60003;BMP280;46322;52.018;8.702;2023-03-01T08:04:08;101559.25;;;8.60
60003;BMP280;46322;52.018;8.702;2023-03-01T08:09:08;101565.91;;;9.72
60003;BMP280;46322;52.018;8.702;2023-03-01T08:14:09;101563.16;;;9.92
60003;BMP280;46322;52.018;8.702;2023-03-01T08:19:11;101557.22;;;10.34
60003;BMP280;46322;52.018;8.702;2023-03-01T08:24:11;101550.47;;;8.75
60003;BMP280;46322;52.018;8.702;2023-03-01T08:29:11;101543.72;;;9.18
60003;BMP280;46322;52.018;8.702;2023-03-01T08:34:15;101556.09;;;10.64
60003;BMP280;46322;52.018;8.702;2023-03-01T08:39:16;101551.53;;;10.70
60003;BMP280;46322;52.018;8.702;2023-03-01T08:44:17;101552.91;;;10.43
60003;BMP280;46322;52.018;8.702;2023-03-01T08:49:18;101556.53;;;10.47
60003;BMP280;46322;52.018;8.702;2023-03-01T08:54:20;101551.81;;;10.44
60003;BMP280;46322;52.018;8.702;2023-03-01T08:59:20;101545.25;;;11.27
60003;BMP280;46322;52.018;8.702;2023-03-01T09:04:21;101553.75;;;11.48
60003;BMP280;46322;52.018;8.702;2023-03-01T09:09:21;101550.88;;;11.58
60003;BMP280;46322;52.018;8.702;2023-03-01T09:14:21;101542.22;;;10.96
60003;BMP280;46322;52.018;8.702;2023-03-01T09:19:22;101540.28;;;11.91
60003;BMP280;46322;52.018;8.702;2023-03-01T09:24:23;101534.00;;;11.54
60003;BMP280;46322;52.018;8.702;2023-03-01T09:29:24;101536.56;;;11.40
60003;BMP280;46322;52.018;8.702;2023-03-01T09:34:24;101538.31;;;12.56
60003;BMP280;46322;52.018;8.702;2023-03-01T09:39:25;101535.25;;;12.49
60003;BMP280;46322;52.018;8.702;2023-03-01T09:49:29;101514.44;;;12.51
60003;BMP280;46322;52.018;8.702;2023-03-01T09:54:30;101517.84;;;11.83
60003;BMP280;46322;52.018;8.702;2023-03-01T10:05:29;101519.31;;;14.45
60003;BMP280;46322;52.018;8.702;2023-03-01T10:10:47;101509.53;;;13.53
60003;BMP280;46322;52.018;8.702;2023-03-01T10:15:55;101513.22;;;13.43
60003;BMP280;46322;52.018;8.702;2023-03-01T10:21:01;101493.28;;;12.32
60003;BMP280;46322;52.018;8.702;2023-03-01T10:31:26;101500.50;;;13.62
60003;BMP280;46322;52.018;8.702;2023-03-01T10:36:32;101493.44;;;13.13
60003;BMP280;46322;52.018;8.702;2023-03-01T10:41:33;101496.78;;;13.41
60003;BMP280;46322;52.018;8.702;2023-03-01T10:46:35;101495.38;;;13.44
60003;BMP280;46322;52.018;8.702;2023-03-01T10:51:36;101485.97;;;13.46
60003;BMP280;46322;52.018;8.702;2023-03-01T10:56:53;101488.56;;;13.91
60003;BMP280;46322;52.018;8.702;2023-03-01T11:07:15;101485.09;;;14.30
60003;BMP280;46322;52.018;8.702;2023-03-01T11:12:16;101479.44;;;14.23
60003;BMP280;46322;52.018;8.702;2023-03-01T11:17:24;101479.56;;;14.18
60003;BMP280;46322;52.018;8.702;2023-03-01T11:22:25;101479.00;;;14.47
60003;BMP280;46322;52.018;8.702;2023-03-01T11:27:28;101464.88;;;15.07
60003;BMP280;46322;52.018;8.702;2023-03-01T11:32:36;101470.34;;;15.27
60003;BMP280;46322;52.018;8.702;2023-03-01T11:37:58;101480.09;;;14.37
60003;BMP280;46322;52.018;8.702;2023-03-01T11:48:29;101469.88;;;16.02
60003;BMP280;46322;52.018;8.702;2023-03-01T11:59:11;101459.41;;;15.88
60003;BMP280;46322;52.018;8.702;2023-03-01T12:14:55;101434.47;;;17.49
60003;BMP280;46322;52.018;8.702;2023-03-01T12:47:19;101384.47;;;21.11
60003;BMP280;46322;52.018;8.702;2023-03-01T12:52:44;101375.69;;;18.95
60003;BMP280;46322;52.018;8.702;2023-03-01T12:57:57;101369.28;;;20.09
60003;BMP280;46322;52.018;8.702;2023-03-01T13:03:11;101365.91;;;20.80
60003;BMP280;46322;52.018;8.702;2023-03-01T13:08:35;101365.47;;;21.94
60003;BMP280;46322;52.018;8.702;2023-03-01T13:13:36;101352.50;;;22.10
60003;BMP280;46322;52.018;8.702;2023-03-01T13:18:36;101347.66;;;20.24
60003;BMP280;46322;52.018;8.702;2023-03-01T13:23:38;101344.31;;;20.31
60003;BMP280;46322;52.018;8.702;2023-03-01T13:43:55;101328.13;;;23.09
60003;BMP280;46322;52.018;8.702;2023-03-01T13:48:56;101323.38;;;22.34
60003;BMP280;46322;52.018;8.702;2023-03-01T13:53:58;101322.69;;;22.40
60003;BMP280;46322;52.018;8.702;2023-03-01T13:59:05;101310.97;;;21.48
60003;BMP280;46322;52.018;8.702;2023-03-01T14:04:21;101300.63;;;22.93
60003;BMP280;46322;52.018;8.702;2023-03-01T14:09:25;101302.66;;;22.48
60003;BMP280;46322;52.018;8.702;2023-03-01T14:14:52;101297.81;;;22.17
60003;BMP280;46322;52.018;8.702;2023-03-01T14:19:57;101300.38;;;22.54
60003;BMP280;46322;52.018;8.702;2023-03-01T14:25:03;101301.47;;;23.15
60003;BMP280;46322;52.018;8.702;2023-03-01T14:35:19;101288.56;;;22.80
60003;BMP280;46322;52.018;8.702;2023-03-01T14:40:21;101272.81;;;21.83
60003;BMP280;46322;52.018;8.702;2023-03-01T14:45:21;101272.44;;;22.32
60003;BMP280;46322;52.018;8.702;2023-03-01T14:50:29;101272.56;;;21.62
60003;BMP280;46322;52.018;8.702;2023-03-01T14:55:37;101256.25;;;22.36
60003;BMP280;46322;52.018;8.702;2023-03-01T15:00:37;101256.16;;;21.77
60003;BMP280;46322;52.018;8.702;2023-03-01T15:05:38;101259.91;;;21.32
60003;BMP280;46322;52.018;8.702;2023-03-01T15:10:38;101252.81;;;21.91
60003;BMP280;46322;52.018;8.702;2023-03-01T15:15:42;101236.97;;;22.37
60003;BMP280;46322;52.018;8.702;2023-03-01T15:20:43;101223.06;;;20.80
60003;BMP280;46322;52.018;8.702;2023-03-01T15:25:44;101229.44;;;22.06
60003;BMP280;46322;52.018;8.702;2023-03-01T15:30:44;101230.03;;;21.89
60003;BMP280;46322;52.018;8.702;2023-03-01T15:35:45;101230.16;;;21.99
60003;BMP280;46322;52.018;8.702;2023-03-01T15:40:49;101220.94;;;19.49
60003;BMP280;46322;52.018;8.702;2023-03-01T15:45:55;101218.44;;;22.39
60003;BMP280;46322;52.018;8.702;2023-03-01T15:50:56;101224.38;;;21.64
60003;BMP280;46322;52.018;8.702;2023-03-01T15:55:58;101208.69;;;20.69
60003;BMP280;46322;52.018;8.702;2023-03-01T16:00:58;101213.97;;;20.62
60003;BMP280;46322;52.018;8.702;2023-03-01T16:05:58;101209.75;;;18.73
60003;BMP280;46322;52.018;8.702;2023-03-01T16:10:58;101212.28;;;17.19
60003;BMP280;46322;52.018;8.702;2023-03-01T16:15:59;101211.13;;;16.68
60003;BMP280;46322;52.018;8.702;2023-03-01T16:20:59;101204.72;;;16.36
60003;BMP280;46322;52.018;8.702;2023-03-01T16:26:01;101203.75;;;17.42
60003;BMP280;46322;52.018;8.702;2023-03-01T16:31:03;101197.38;;;16.57
60003;BMP280;46322;52.018;8.702;2023-03-01T16:36:09;101202.47;;;15.60
60003;BMP280;46322;52.018;8.702;2023-03-01T16:41:13;101209.78;;;16.05
60003;BMP280;46322;52.018;8.702;2023-03-01T16:46:16;101206.19;;;16.46
60003;BMP280;46322;52.018;8.702;2023-03-01T16:51:17;101193.38;;;15.73
60003;BMP280;46322;52.018;8.702;2023-03-01T16:56:17;101190.91;;;14.76
60003;BMP280;46322;52.018;8.702;2023-03-01T17:01:19;101203.44;;;15.55
60003;BMP280;46322;52.018;8.702;2023-03-01T17:06:20;101196.56;;;15.34
60003;BMP280;46322;52.018;8.702;2023-03-01T17:11:20;101202.19;;;14.35
60003;BMP280;46322;52.018;8.702;2023-03-01T17:16:27;101207.28;;;16.33
60003;BMP280;46322;52.018;8.702;2023-03-01T17:21:27;101218.56;;;15.72
60003;BMP280;46322;52.018;8.702;2023-03-01T17:26:28;101222.47;;;13.84
60003;BMP280;46322;52.018;8.702;2023-03-01T17:31:30;101217.13;;;13.93
60003;BMP280;46322;52.018;8.702;2023-03-01T17:36:30;101224.56;;;14.51
60003;BMP280;46322;52.018;8.702;2023-03-01T17:41:38;101218.13;;;14.99
60003;BMP280;46322;52.018;8.702;2023-03-01T17:46:38;101234.19;;;14.35
60003;BMP280;46322;52.018;8.702;2023-03-01T17:51:38;101235.78;;;13.93
60003;BMP280;46322;52.018;8.702;2023-03-01T17:56:39;101241.28;;;14.78
60003;BMP280;46322;52.018;8.702;2023-03-01T18:01:40;101239.25;;;14.19
60003;BMP280;46322;52.018;8.702;2023-03-01T18:06:41;101242.06;;;14.31
60003;BMP280;46322;52.018;8.702;2023-03-01T18:11:41;101230.03;;;13.25
60003;BMP280;46322;52.018;8.702;2023-03-01T18:16:41;101235.16;;;13.96
60003;BMP280;46322;52.018;8.702;2023-03-01T18:21:41;101242.31;;;14.47
60003;BMP280;46322;52.018;8.702;2023-03-01T18:26:42;101241.16;;;15.33
60003;BMP280;46322;52.018;8.702;2023-03-01T18:31:42;101241.72;;;15.47
60003;BMP280;46322;52.018;8.702;2023-03-01T18:36:42;101242.72;;;13.94
60003;BMP280;46322;52.018;8.702;2023-03-01T18:41:43;101226.69;;;13.68
60003;BMP280;46322;52.018;8.702;2023-03-01T18:46:43;101237.38;;;13.20
60003;BMP280;46322;52.018;8.702;2023-03-01T18:51:43;101221.75;;;14.86
60003;BMP280;46322;52.018;8.702;2023-03-01T18:56:44;101223.69;;;13.52
60003;BMP280;46322;52.018;8.702;2023-03-01T19:01:44;101217.31;;;14.05
60003;BMP280;46322;52.018;8.702;2023-03-01T19:06:45;101208.94;;;13.46
60003;BMP280;46322;52.018;8.702;2023-03-01T19:11:45;101212.09;;;14.17
60003;BMP280;46322;52.018;8.702;2023-03-01T19:16:45;101213.16;;;13.30
60003;BMP280;46322;52.018;8.702;2023-03-01T19:21:45;101218.69;;;12.40
60003;BMP280;46322;52.018;8.702;2023-03-01T19:26:46;101218.13;;;14.61
60003;BMP280;46322;52.018;8.702;2023-03-01T19:31:46;101226.19;;;13.49
60003;BMP280;46322;52.018;8.702;2023-03-01T19:36:46;101226.38;;;12.20
60003;BMP280;46322;52.018;8.702;2023-03-01T19:41:46;101213.53;;;13.63
60003;BMP280;46322;52.018;8.702;2023-03-01T19:46:47;101226.53;;;12.68
60003;BMP280;46322;52.018;8.702;2023-03-01T19:51:47;101214.16;;;13.60
60003;BMP280;46322;52.018;8.702;2023-03-01T19:56:49;101213.19;;;13.47
60003;BMP280;46322;52.018;8.702;2023-03-01T20:01:50;101211.34;;;11.79
60003;BMP280;46322;52.018;8.702;2023-03-01T20:06:51;101215.25;;;13.67
60003;BMP280;46322;52.018;8.702;2023-03-01T20:11:51;101208.81;;;13.60
60003;BMP280;46322;52.018;8.702;2023-03-01T20:16:51;101206.94;;;13.60
60003;BMP280;46322;52.018;8.702;2023-03-01T20:21:52;101217.06;;;12.84
60003;BMP280;46322;52.018;8.702;2023-03-01T20:26:52;101208.03;;;13.77
60003;BMP280;46322;52.018;8.702;2023-03-01T20:31:52;101208.19;;;13.80
60003;BMP280;46322;52.018;8.702;2023-03-01T20:36:52;101211.31;;;13.56
60003;BMP280;46322;52.018;8.702;2023-03-01T20:41:53;101214.84;;;13.17
60003;BMP280;46322;52.018;8.702;2023-03-01T20:46:53;101221.38;;;12.71
60003;BMP280;46322;52.018;8.702;2023-03-01T20:51:53;101213.28;;;13.25
60003;BMP280;46322;52.018;8.702;2023-03-01T20:56:53;101212.25;;;11.97
60003;BMP280;46322;52.018;8.702;2023-03-01T21:01:54;101225.75;;;13.07
60003;BMP280;46322;52.018;8.702;2023-03-01T21:06:55;101224.41;;;13.27
60003;BMP280;46322;52.018;8.702;2023-03-01T21:11:55;101217.97;;;13.19
60003;BMP280;46322;52.018;8.702;2023-03-01T21:16:55;101218.63;;;13.33
60003;BMP280;46322;52.018;8.702;2023-03-01T21:21:55;101223.03;;;13.29
60003;BMP280;46322;52.018;8.702;2023-03-01T21:26:56;101217.06;;;13.24
60003;BMP280;46322;52.018;8.702;2023-03-01T21:31:56;101217.84;;;12.93
60003;BMP280;46322;52.018;8.702;2023-03-01T21:36:56;101213.88;;;12.73
60003;BMP280;46322;52.018;8.702;2023-03-01T21:41:58;101210.72;;;12.71
60003;BMP280;46322;52.018;8.702;2023-03-01T21:46:58;101196.53;;;12.23
60003;BMP280;46322;52.018;8.702;2023-03-01T21:51:59;101200.63;;;12.29
60003;BMP280;46322;52.018;8.702;2023-03-01T21:56:59;101185.16;;;12.08
60003;BMP280;46322;52.018;8.702;2023-03-01T22:01:59;101190.47;;;12.31
60003;BMP280;46322;52.018;8.702;2023-03-01T22:07:06;101183.59;;;12.30
60003;BMP280;46322;52.018;8.702;2023-03-01T22:12:06;101180.13;;;11.85
60003;BMP280;46322;52.018;8.702;2023-03-01T22:17:07;101183.47;;;10.53
60003;BMP280;46322;52.018;8.702;2023-03-01T22:22:07;101181.19;;;11.47
60003;BMP280;46322;52.018;8.702;2023-03-01T22:27:07;101185.59;;;9.81
60003;BMP280;46322;52.018;8.702;2023-03-01T22:32:07;101195.06;;;11.17
60003;BMP280;46322;52.018;8.702;2023-03-01T22:37:08;101180.91;;;11.08
60003;BMP280;46322;52.018;8.702;2023-03-01T22:42:08;101185.13;;;11.09
60003;BMP280;46322;52.018;8.702;2023-03-01T22:47:08;101172.81;;;11.54
60003;BMP280;46322;52.018;8.702;2023-03-01T22:52:08;101170.78;;;10.96
60003;BMP280;46322;52.018;8.702;2023-03-01T22:57:09;101154.28;;;10.53
60003;BMP280;46322;52.018;8.702;2023-03-01T23:02:10;101156.84;;;10.44
60003;BMP280;46322;52.018;8.702;2023-03-01T23:07:10;101146.59;;;9.86
60003;BMP280;46322;52.018;8.702;2023-03-01T23:12:10;101153.91;;;8.75
60003;BMP280;46322;52.018;8.702;2023-03-01T23:17:10;101154.44;;;11.44
60003;BMP280;46322;52.018;8.702;2023-03-01T23:22:11;101150.41;;;11.05
60003;BMP280;46322;52.018;8.702;2023-03-01T23:27:11;101158.00;;;10.98
60003;BMP280;46322;52.018;8.702;2023-03-01T23:32:12;101156.53;;;11.33
60003;BMP280;46322;52.018;8.702;2023-03-01T23:37:12;101152.81;;;9.77
60003;BMP280;46322;52.018;8.702;2023-03-01T23:42:12;101153.81;;;10.65
60003;BMP280;46322;52.018;8.702;2023-03-01T23:47:12;101146.28;;;10.25
60003;BMP280;46322;52.018;8.702;2023-03-01T23:52:13;101144.50;;;10.67
60003;BMP280;46322;52.018;8.702;2023-03-01T23:57:13;101144.63;;;10.11
